sensor_id;sensor_type;location;lat;lon;timestamp;temperature;humidity
810;DHT22;387;48.772;9.186;2023-06-26T00:00:27;22.60;58.10
810;DHT22;387;48.772;9.186;2023-06-26T00:02:52;22.60;58.10
810;DHT22;387;48.772;9.186;2023-06-26T00:05:18;22.60;58.40
810;DHT22;387;48.772;9.186;2023-06-26T00:07:44;22.50;58.50
810;DHT22;387;48.772;9.186;2023-06-26T00:10:10;22.50;58.40
810;DHT22;387;48.772;9.186;2023-06-26T00:12:35;22.50;58.70
810;DHT22;387;48.772;9.186;2023-06-26T00:15:01;22.40;58.80
810;DHT22;387;48.772;9.186;2023-06-26T00:17:27;22.40;58.90
810;DHT22;387;48.772;9.186;2023-06-26T00:19:52;22.30;59.10
810;DHT22;387;48.772;9.186;2023-06-26T00:22:18;22.30;59.20
810;DHT22;387;48.772;9.186;2023-06-26T00:24:44;22.20;59.20
810;DHT22;387;48.772;9.186;2023-06-26T00:27:12;22.20;59.50
810;DHT22;387;48.772;9.186;2023-06-26T00:29:38;22.20;59.60
810;DHT22;387;48.772;9.186;2023-06-26T00:32:04;22.10;59.70
810;DHT22;387;48.772;9.186;2023-06-26T00:34:30;22.10;59.70
810;DHT22;387;48.772;9.186;2023-06-26T00:36:55;22.00;59.90
810;DHT22;387;48.772;9.186;2023-06-26T00:39:21;22.00;59.90
810;DHT22;387;48.772;9.186;2023-06-26T00:41:46;22.00;59.90
810;DHT22;387;48.772;9.186;2023-06-26T00:44:12;22.00;60.10
810;DHT22;387;48.772;9.186;2023-06-26T00:46:38;22.00;60.00
810;DHT22;387;48.772;9.186;2023-06-26T00:49:04;22.00;59.90
810;DHT22;387;48.772;9.186;2023-06-26T00:51:30;22.00;60.10
810;DHT22;387;48.772;9.186;2023-06-26T00:53:57;21.90;60.30
810;DHT22;387;48.772;9.186;2023-06-26T00:56:23;21.90;60.30
810;DHT22;387;48.772;9.186;2023-06-26T00:58:49;21.90;60.30
810;DHT22;387;48.772;9.186;2023-06-26T01:01:15;21.90;60.30
810;DHT22;387;48.772;9.186;2023-06-26T01:03:46;21.90;60.40
810;DHT22;387;48.772;9.186;2023-06-26T01:06:18;21.90;60.60
810;DHT22;387;48.772;9.186;2023-06-26T01:08:44;21.90;60.60
810;DHT22;387;48.772;9.186;2023-06-26T01:11:11;21.90;60.70
810;DHT22;387;48.772;9.186;2023-06-26T01:13:37;21.90;60.60
810;DHT22;387;48.772;9.186;2023-06-26T01:16:04;21.80;60.90
810;DHT22;387;48.772;9.186;2023-06-26T01:18:31;21.80;60.70
810;DHT22;387;48.772;9.186;2023-06-26T01:20:58;21.80;60.90
810;DHT22;387;48.772;9.186;2023-06-26T01:26:30;21.80;60.60
810;DHT22;387;48.772;9.186;2023-06-26T01:29:02;21.80;60.90
810;DHT22;387;48.772;9.186;2023-06-26T01:31:29;21.80;60.70
810;DHT22;387;48.772;9.186;2023-06-26T01:33:57;21.80;60.70
810;DHT22;387;48.772;9.186;2023-06-26T01:36:24;21.80;60.90
810;DHT22;387;48.772;9.186;2023-06-26T01:38:50;21.70;61.00
810;DHT22;387;48.772;9.186;2023-06-26T01:41:17;21.70;61.30
810;DHT22;387;48.772;9.186;2023-06-26T01:43:55;21.70;61.30
810;DHT22;387;48.772;9.186;2023-06-26T01:47:00;21.60;60.90
810;DHT22;387;48.772;9.186;2023-06-26T01:55:03;21.70;60.70
810;DHT22;387;48.772;9.186;2023-06-26T01:57:30;21.70;60.90
810;DHT22;387;48.772;9.186;2023-06-26T01:59:57;21.80;60.60
810;DHT22;387;48.772;9.186;2023-06-26T02:02:24;21.70;60.70
810;DHT22;387;48.772;9.186;2023-06-26T02:04:51;21.70;60.90
810;DHT22;387;48.772;9.186;2023-06-26T02:07:17;21.60;61.00
810;DHT22;387;48.772;9.186;2023-06-26T02:09:42;21.70;61.00
810;DHT22;387;48.772;9.186;2023-06-26T02:12:09;21.60;61.20
810;DHT22;387;48.772;9.186;2023-06-26T02:14:34;21.60;61.30
810;DHT22;387;48.772;9.186;2023-06-26T02:17:00;21.60;61.50
810;DHT22;387;48.772;9.186;2023-06-26T02:19:26;21.60;61.70
810;DHT22;387;48.772;9.186;2023-06-26T02:21:53;21.60;61.70
810;DHT22;387;48.772;9.186;2023-06-26T02:24:18;21.50;61.90
810;DHT22;387;48.772;9.186;2023-06-26T02:26:44;21.50;61.90
810;DHT22;387;48.772;9.186;2023-06-26T02:29:11;21.60;61.60
810;DHT22;387;48.772;9.186;2023-06-26T02:31:37;21.50;61.90
810;DHT22;387;48.772;9.186;2023-06-26T02:34:02;21.50;62.00
810;DHT22;387;48.772;9.186;2023-06-26T02:36:28;21.40;62.50
810;DHT22;387;48.772;9.186;2023-06-26T02:38:54;21.30;62.90
810;DHT22;387;48.772;9.186;2023-06-26T02:41:19;21.30;63.20
810;DHT22;387;48.772;9.186;2023-06-26T02:43:45;21.30;63.20
810;DHT22;387;48.772;9.186;2023-06-26T02:46:10;21.30;63.20
810;DHT22;387;48.772;9.186;2023-06-26T02:48:36;21.30;63.40
810;DHT22;387;48.772;9.186;2023-06-26T02:51:01;21.30;63.20
810;DHT22;387;48.772;9.186;2023-06-26T02:53:27;21.20;63.40
810;DHT22;387;48.772;9.186;2023-06-26T02:55:52;21.10;63.40
810;DHT22;387;48.772;9.186;2023-06-26T02:58:18;21.10;63.50
810;DHT22;387;48.772;9.186;2023-06-26T03:00:44;21.10;63.50
810;DHT22;387;48.772;9.186;2023-06-26T03:03:10;21.20;63.70
810;DHT22;387;48.772;9.186;2023-06-26T03:05:35;21.10;63.50
810;DHT22;387;48.772;9.186;2023-06-26T03:08:02;21.10;63.70
810;DHT22;387;48.772;9.186;2023-06-26T03:10:28;20.90;63.90
810;DHT22;387;48.772;9.186;2023-06-26T03:12:53;20.90;63.90
810;DHT22;387;48.772;9.186;2023-06-26T03:15:19;20.80;64.20
810;DHT22;387;48.772;9.186;2023-06-26T03:17:45;20.80;64.50
810;DHT22;387;48.772;9.186;2023-06-26T03:20:10;20.80;64.40
810;DHT22;387;48.772;9.186;2023-06-26T03:22:36;20.80;64.40
810;DHT22;387;48.772;9.186;2023-06-26T03:25:02;20.70;64.50
810;DHT22;387;48.772;9.186;2023-06-26T03:27:28;20.70;64.70
810;DHT22;387;48.772;9.186;2023-06-26T03:29:54;20.80;64.50
810;DHT22;387;48.772;9.186;2023-06-26T03:32:19;20.80;64.50
810;DHT22;387;48.772;9.186;2023-06-26T03:34:45;20.90;64.20
810;DHT22;387;48.772;9.186;2023-06-26T03:37:11;20.90;64.10
810;DHT22;387;48.772;9.186;2023-06-26T03:39:37;20.90;64.40
810;DHT22;387;48.772;9.186;2023-06-26T03:42:02;20.90;64.20
810;DHT22;387;48.772;9.186;2023-06-26T03:44:28;20.80;64.40
810;DHT22;387;48.772;9.186;2023-06-26T03:46:54;20.80;64.40
810;DHT22;387;48.772;9.186;2023-06-26T03:49:19;20.80;64.50
810;DHT22;387;48.772;9.186;2023-06-26T03:51:45;20.80;64.70
810;DHT22;387;48.772;9.186;2023-06-26T03:54:11;20.90;64.50
810;DHT22;387;48.772;9.186;2023-06-26T03:56:37;21.00;64.40
810;DHT22;387;48.772;9.186;2023-06-26T03:59:02;20.90;64.40
810;DHT22;387;48.772;9.186;2023-06-26T04:01:28;21.00;64.50
810;DHT22;387;48.772;9.186;2023-06-26T04:03:54;21.00;64.70
810;DHT22;387;48.772;9.186;2023-06-26T04:06:19;20.90;64.50
810;DHT22;387;48.772;9.186;2023-06-26T04:08:45;21.00;64.70
810;DHT22;387;48.772;9.186;2023-06-26T04:11:11;21.00;64.70
810;DHT22;387;48.772;9.186;2023-06-26T04:13:36;21.10;64.50
810;DHT22;387;48.772;9.186;2023-06-26T04:16:02;21.10;64.50
810;DHT22;387;48.772;9.186;2023-06-26T04:18:27;21.10;64.50
810;DHT22;387;48.772;9.186;2023-06-26T04:21:11;21.20;64.40
810;DHT22;387;48.772;9.186;2023-06-26T04:23:39;21.20;64.10
810;DHT22;387;48.772;9.186;2023-06-26T04:26:05;21.10;64.40
810;DHT22;387;48.772;9.186;2023-06-26T04:28:32;21.00;64.80
810;DHT22;387;48.772;9.186;2023-06-26T04:30:59;21.10;64.70
810;DHT22;387;48.772;9.186;2023-06-26T04:33:25;21.20;64.50
810;DHT22;387;48.772;9.186;2023-06-26T04:35:51;21.30;63.90
810;DHT22;387;48.772;9.186;2023-06-26T04:38:17;21.30;64.20
810;DHT22;387;48.772;9.186;2023-06-26T04:40:42;21.30;64.40
810;DHT22;387;48.772;9.186;2023-06-26T04:43:08;21.30;64.10
810;DHT22;387;48.772;9.186;2023-06-26T04:45:33;21.40;64.10
810;DHT22;387;48.772;9.186;2023-06-26T04:47:59;21.40;64.20
810;DHT22;387;48.772;9.186;2023-06-26T04:50:27;21.50;64.10
810;DHT22;387;48.772;9.186;2023-06-26T04:52:55;21.50;63.90
810;DHT22;387;48.772;9.186;2023-06-26T04:55:20;21.60;63.90
810;DHT22;387;48.772;9.186;2023-06-26T04:57:47;21.70;63.80
810;DHT22;387;48.772;9.186;2023-06-26T05:00:13;21.70;63.80
810;DHT22;387;48.772;9.186;2023-06-26T05:02:39;21.70;63.80
810;DHT22;387;48.772;9.186;2023-06-26T05:05:05;21.80;63.70
810;DHT22;387;48.772;9.186;2023-06-26T05:07:30;21.80;63.40
810;DHT22;387;48.772;9.186;2023-06-26T05:09:56;21.90;63.40
810;DHT22;387;48.772;9.186;2023-06-26T05:12:22;21.90;62.90
810;DHT22;387;48.772;9.186;2023-06-26T05:14:47;22.00;62.90
810;DHT22;387;48.772;9.186;2023-06-26T05:17:16;22.00;62.60
810;DHT22;387;48.772;9.186;2023-06-26T05:19:42;22.10;62.50
810;DHT22;387;48.772;9.186;2023-06-26T05:22:08;22.10;62.20
810;DHT22;387;48.772;9.186;2023-06-26T05:24:35;22.20;61.90
810;DHT22;387;48.772;9.186;2023-06-26T05:27:01;22.30;62.20
810;DHT22;387;48.772;9.186;2023-06-26T05:29:29;22.50;62.00
810;DHT22;387;48.772;9.186;2023-06-26T05:31:56;22.50;62.00
810;DHT22;387;48.772;9.186;2023-06-26T05:34:25;22.60;61.70
810;DHT22;387;48.772;9.186;2023-06-26T05:36:57;22.70;61.70
810;DHT22;387;48.772;9.186;2023-06-26T05:39:23;22.80;61.60
810;DHT22;387;48.772;9.186;2023-06-26T05:41:50;22.80;61.50
810;DHT22;387;48.772;9.186;2023-06-26T05:44:16;22.90;61.20
810;DHT22;387;48.772;9.186;2023-06-26T05:46:41;23.10;60.70
810;DHT22;387;48.772;9.186;2023-06-26T05:49:07;23.10;60.70
810;DHT22;387;48.772;9.186;2023-06-26T05:51:33;23.10;60.40
810;DHT22;387;48.772;9.186;2023-06-26T05:53:59;23.10;60.10
810;DHT22;387;48.772;9.186;2023-06-26T05:56:25;23.10;60.10
810;DHT22;387;48.772;9.186;2023-06-26T05:58:51;23.20;59.90
810;DHT22;387;48.772;9.186;2023-06-26T06:01:17;23.30;59.50
810;DHT22;387;48.772;9.186;2023-06-26T06:03:44;23.60;58.20
810;DHT22;387;48.772;9.186;2023-06-26T06:06:09;23.80;57.80
810;DHT22;387;48.772;9.186;2023-06-26T06:08:35;23.90;57.60
810;DHT22;387;48.772;9.186;2023-06-26T06:11:01;24.00;57.30
810;DHT22;387;48.772;9.186;2023-06-26T06:13:27;24.10;57.30
810;DHT22;387;48.772;9.186;2023-06-26T06:15:53;24.10;57.30
810;DHT22;387;48.772;9.186;2023-06-26T06:18:19;24.10;57.40
810;DHT22;387;48.772;9.186;2023-06-26T06:20:44;24.20;57.70
810;DHT22;387;48.772;9.186;2023-06-26T06:23:10;24.30;58.40
810;DHT22;387;48.772;9.186;2023-06-26T06:25:36;24.40;58.90
810;DHT22;387;48.772;9.186;2023-06-26T06:28:01;24.50;58.90
810;DHT22;387;48.772;9.186;2023-06-26T06:30:27;24.50;58.70
810;DHT22;387;48.772;9.186;2023-06-26T06:32:53;24.60;58.90
810;DHT22;387;48.772;9.186;2023-06-26T06:35:19;24.40;59.60
810;DHT22;387;48.772;9.186;2023-06-26T06:37:45;24.30;59.90
810;DHT22;387;48.772;9.186;2023-06-26T06:40:13;24.30;60.30
810;DHT22;387;48.772;9.186;2023-06-26T06:42:39;24.40;60.30
810;DHT22;387;48.772;9.186;2023-06-26T06:45:05;24.40;60.10
810;DHT22;387;48.772;9.186;2023-06-26T06:47:34;24.40;60.00
810;DHT22;387;48.772;9.186;2023-06-26T06:50:00;24.40;59.70
810;DHT22;387;48.772;9.186;2023-06-26T06:52:42;24.40;59.50
810;DHT22;387;48.772;9.186;2023-06-26T06:55:09;24.40;59.20
810;DHT22;387;48.772;9.186;2023-06-26T06:57:36;24.50;59.20
810;DHT22;387;48.772;9.186;2023-06-26T07:00:11;24.70;58.90
810;DHT22;387;48.772;9.186;2023-06-26T07:02:38;24.80;58.40
810;DHT22;387;48.772;9.186;2023-06-26T07:05:05;24.90;57.80
810;DHT22;387;48.772;9.186;2023-06-26T07:07:32;25.00;58.10
810;DHT22;387;48.772;9.186;2023-06-26T07:09:59;25.20;57.80
810;DHT22;387;48.772;9.186;2023-06-26T07:12:25;25.40;56.90
810;DHT22;387;48.772;9.186;2023-06-26T07:14:51;25.50;56.90
810;DHT22;387;48.772;9.186;2023-06-26T07:17:17;25.60;56.80
810;DHT22;387;48.772;9.186;2023-06-26T07:19:42;25.70;56.60
810;DHT22;387;48.772;9.186;2023-06-26T07:22:08;25.90;56.20
810;DHT22;387;48.772;9.186;2023-06-26T07:24:33;25.80;56.60
810;DHT22;387;48.772;9.186;2023-06-26T07:26:59;25.80;56.90
810;DHT22;387;48.772;9.186;2023-06-26T07:29:26;26.00;56.40
810;DHT22;387;48.772;9.186;2023-06-26T07:31:51;26.10;55.80
810;DHT22;387;48.772;9.186;2023-06-26T07:34:17;26.10;56.10
810;DHT22;387;48.772;9.186;2023-06-26T07:36:43;26.00;56.50
810;DHT22;387;48.772;9.186;2023-06-26T07:39:08;26.20;55.30
810;DHT22;387;48.772;9.186;2023-06-26T07:41:34;26.30;54.20
810;DHT22;387;48.772;9.186;2023-06-26T07:43:59;26.20;55.70
810;DHT22;387;48.772;9.186;2023-06-26T07:46:25;26.30;55.80
810;DHT22;387;48.772;9.186;2023-06-26T07:48:50;26.40;55.40
810;DHT22;387;48.772;9.186;2023-06-26T07:51:16;26.50;55.20
810;DHT22;387;48.772;9.186;2023-06-26T07:53:42;26.60;54.60
810;DHT22;387;48.772;9.186;2023-06-26T07:56:07;26.70;54.50
810;DHT22;387;48.772;9.186;2023-06-26T07:58:33;26.80;53.60
810;DHT22;387;48.772;9.186;2023-06-26T08:00:58;27.00;53.30
810;DHT22;387;48.772;9.186;2023-06-26T08:03:24;27.10;53.00
810;DHT22;387;48.772;9.186;2023-06-26T08:05:50;27.30;52.50
810;DHT22;387;48.772;9.186;2023-06-26T08:08:15;27.40;51.80
810;DHT22;387;48.772;9.186;2023-06-26T08:10:41;27.50;51.70
810;DHT22;387;48.772;9.186;2023-06-26T08:13:06;27.60;52.00
810;DHT22;387;48.772;9.186;2023-06-26T08:15:32;27.70;52.00
810;DHT22;387;48.772;9.186;2023-06-26T08:17:58;27.80;50.70
810;DHT22;387;48.772;9.186;2023-06-26T08:20:23;27.90;49.70
810;DHT22;387;48.772;9.186;2023-06-26T08:22:49;27.80;49.80
810;DHT22;387;48.772;9.186;2023-06-26T08:25:17;27.80;49.90
810;DHT22;387;48.772;9.186;2023-06-26T08:27:42;27.90;50.30
810;DHT22;387;48.772;9.186;2023-06-26T08:30:08;28.00;49.90
810;DHT22;387;48.772;9.186;2023-06-26T08:32:34;28.10;49.50
810;DHT22;387;48.772;9.186;2023-06-26T08:34:59;28.30;49.70
810;DHT22;387;48.772;9.186;2023-06-26T08:37:25;28.40;49.40
810;DHT22;387;48.772;9.186;2023-06-26T08:39:50;28.40;48.70
810;DHT22;387;48.772;9.186;2023-06-26T08:42:16;28.50;48.90
810;DHT22;387;48.772;9.186;2023-06-26T08:44:42;28.60;48.60
810;DHT22;387;48.772;9.186;2023-06-26T08:47:09;28.80;47.30
810;DHT22;387;48.772;9.186;2023-06-26T08:52:23;28.80;47.40
810;DHT22;387;48.772;9.186;2023-06-26T08:54:56;28.80;47.10
810;DHT22;387;48.772;9.186;2023-06-26T08:57:23;29.00;46.90
810;DHT22;387;48.772;9.186;2023-06-26T08:59:49;28.90;46.60
810;DHT22;387;48.772;9.186;2023-06-26T09:02:16;28.80;46.50
810;DHT22;387;48.772;9.186;2023-06-26T09:04:42;28.90;47.00
810;DHT22;387;48.772;9.186;2023-06-26T09:07:07;29.00;46.50
810;DHT22;387;48.772;9.186;2023-06-26T09:09:33;28.90;46.20
810;DHT22;387;48.772;9.186;2023-06-26T09:12:00;28.90;46.30
810;DHT22;387;48.772;9.186;2023-06-26T09:14:26;29.00;46.50
810;DHT22;387;48.772;9.186;2023-06-26T09:16:52;29.20;46.10
810;DHT22;387;48.772;9.186;2023-06-26T09:19:18;29.30;46.10
810;DHT22;387;48.772;9.186;2023-06-26T09:21:43;29.50;45.00
810;DHT22;387;48.772;9.186;2023-06-26T09:24:10;29.50;45.00
810;DHT22;387;48.772;9.186;2023-06-26T09:26:37;29.70;45.50
810;DHT22;387;48.772;9.186;2023-06-26T09:29:03;29.70;44.90
810;DHT22;387;48.772;9.186;2023-06-26T09:31:29;29.70;44.90
810;DHT22;387;48.772;9.186;2023-06-26T09:33:59;29.40;44.70
810;DHT22;387;48.772;9.186;2023-06-26T09:36:28;29.30;45.10
810;DHT22;387;48.772;9.186;2023-06-26T09:38:54;29.50;45.10
810;DHT22;387;48.772;9.186;2023-06-26T09:41:20;29.60;45.30
810;DHT22;387;48.772;9.186;2023-06-26T09:43:47;29.60;44.70
810;DHT22;387;48.772;9.186;2023-06-26T09:46:29;29.50;45.00
810;DHT22;387;48.772;9.186;2023-06-26T09:49:06;29.60;44.70
810;DHT22;387;48.772;9.186;2023-06-26T09:51:34;29.80;44.60
810;DHT22;387;48.772;9.186;2023-06-26T09:54:00;29.70;44.10
810;DHT22;387;48.772;9.186;2023-06-26T09:56:27;29.70;44.30
810;DHT22;387;48.772;9.186;2023-06-26T09:58:55;29.90;44.10
810;DHT22;387;48.772;9.186;2023-06-26T10:01:23;29.70;45.00
810;DHT22;387;48.772;9.186;2023-06-26T10:03:49;30.00;45.00
810;DHT22;387;48.772;9.186;2023-06-26T10:06:15;30.10;44.50
810;DHT22;387;48.772;9.186;2023-06-26T10:08:44;30.10;44.90
810;DHT22;387;48.772;9.186;2023-06-26T10:11:14;30.00;45.50
810;DHT22;387;48.772;9.186;2023-06-26T10:13:43;29.90;45.50
810;DHT22;387;48.772;9.186;2023-06-26T10:16:12;30.00;45.70
810;DHT22;387;48.772;9.186;2023-06-26T10:18:39;30.10;45.80
810;DHT22;387;48.772;9.186;2023-06-26T10:21:06;29.70;46.30
810;DHT22;387;48.772;9.186;2023-06-26T10:23:35;29.60;46.60
810;DHT22;387;48.772;9.186;2023-06-26T10:26:02;29.50;47.70
810;DHT22;387;48.772;9.186;2023-06-26T10:28:31;29.40;47.50
810;DHT22;387;48.772;9.186;2023-06-26T10:30:58;29.50;47.70
810;DHT22;387;48.772;9.186;2023-06-26T10:33:26;29.80;47.40
810;DHT22;387;48.772;9.186;2023-06-26T10:35:52;29.80;47.70
810;DHT22;387;48.772;9.186;2023-06-26T10:38:18;29.60;48.10
810;DHT22;387;48.772;9.186;2023-06-26T10:40:48;29.50;48.50
810;DHT22;387;48.772;9.186;2023-06-26T10:43:15;29.40;48.90
810;DHT22;387;48.772;9.186;2023-06-26T10:45:48;29.40;48.70
810;DHT22;387;48.772;9.186;2023-06-26T10:48:19;29.30;48.30
810;DHT22;387;48.772;9.186;2023-06-26T10:50:47;29.30;47.70
810;DHT22;387;48.772;9.186;2023-06-26T10:56:02;29.30;47.90
810;DHT22;387;48.772;9.186;2023-06-26T10:58:41;29.50;47.70
810;DHT22;387;48.772;9.186;2023-06-26T11:01:23;29.80;47.00
810;DHT22;387;48.772;9.186;2023-06-26T11:04:05;30.00;46.50
810;DHT22;387;48.772;9.186;2023-06-26T11:06:31;30.40;45.90
810;DHT22;387;48.772;9.186;2023-06-26T11:09:06;30.40;45.90
810;DHT22;387;48.772;9.186;2023-06-26T11:14:20;31.30;44.30
810;DHT22;387;48.772;9.186;2023-06-26T11:16:46;31.20;44.10
810;DHT22;387;48.772;9.186;2023-06-26T11:19:13;31.00;44.30
810;DHT22;387;48.772;9.186;2023-06-26T11:21:40;31.10;44.20
810;DHT22;387;48.772;9.186;2023-06-26T11:24:09;31.10;44.10
810;DHT22;387;48.772;9.186;2023-06-26T11:26:39;31.10;44.20
810;DHT22;387;48.772;9.186;2023-06-26T11:29:05;31.10;44.30
810;DHT22;387;48.772;9.186;2023-06-26T11:31:35;31.10;44.50
810;DHT22;387;48.772;9.186;2023-06-26T11:34:12;31.00;44.60
810;DHT22;387;48.772;9.186;2023-06-26T11:36:39;31.20;43.50
810;DHT22;387;48.772;9.186;2023-06-26T11:39:06;31.10;44.60
810;DHT22;387;48.772;9.186;2023-06-26T11:41:33;31.20;45.30
810;DHT22;387;48.772;9.186;2023-06-26T11:44:02;31.40;44.90
810;DHT22;387;48.772;9.186;2023-06-26T11:46:28;31.30;45.50
810;DHT22;387;48.772;9.186;2023-06-26T11:48:54;31.70;44.60
810;DHT22;387;48.772;9.186;2023-06-26T11:51:20;31.30;45.00
810;DHT22;387;48.772;9.186;2023-06-26T11:53:46;31.30;45.30
810;DHT22;387;48.772;9.186;2023-06-26T11:56:14;31.10;45.40
810;DHT22;387;48.772;9.186;2023-06-26T11:58:59;31.10;45.30
810;DHT22;387;48.772;9.186;2023-06-26T12:01:42;31.10;45.50
810;DHT22;387;48.772;9.186;2023-06-26T12:04:12;30.80;45.80
810;DHT22;387;48.772;9.186;2023-06-26T12:06:40;30.60;46.90
810;DHT22;387;48.772;9.186;2023-06-26T12:09:11;30.60;47.50
810;DHT22;387;48.772;9.186;2023-06-26T12:11:42;30.00;50.90
810;DHT22;387;48.772;9.186;2023-06-26T12:14:09;29.40;52.50
810;DHT22;387;48.772;9.186;2023-06-26T12:16:35;29.30;53.30
810;DHT22;387;48.772;9.186;2023-06-26T12:19:03;29.70;52.50
810;DHT22;387;48.772;9.186;2023-06-26T12:24:06;29.30;53.40
810;DHT22;387;48.772;9.186;2023-06-26T12:26:32;29.40;53.70
810;DHT22;387;48.772;9.186;2023-06-26T12:29:06;29.70;52.60
810;DHT22;387;48.772;9.186;2023-06-26T12:31:32;29.90;52.20
810;DHT22;387;48.772;9.186;2023-06-26T12:33:59;30.50;51.20
810;DHT22;387;48.772;9.186;2023-06-26T12:36:25;30.60;50.50
810;DHT22;387;48.772;9.186;2023-06-26T12:38:54;30.20;50.90
810;DHT22;387;48.772;9.186;2023-06-26T12:41:23;30.70;50.30
810;DHT22;387;48.772;9.186;2023-06-26T12:43:49;30.20;50.70
810;DHT22;387;48.772;9.186;2023-06-26T12:46:15;30.00;51.60
810;DHT22;387;48.772;9.186;2023-06-26T12:48:42;30.20;50.60
810;DHT22;387;48.772;9.186;2023-06-26T12:51:17;30.20;50.90
810;DHT22;387;48.772;9.186;2023-06-26T12:53:43;30.90;49.80
810;DHT22;387;48.772;9.186;2023-06-26T12:56:10;31.20;48.90
810;DHT22;387;48.772;9.186;2023-06-26T12:58:37;31.30;49.10
810;DHT22;387;48.772;9.186;2023-06-26T13:01:04;31.80;47.70
810;DHT22;387;48.772;9.186;2023-06-26T13:03:31;32.00;46.60
810;DHT22;387;48.772;9.186;2023-06-26T13:05:57;31.70;47.10
810;DHT22;387;48.772;9.186;2023-06-26T13:08:22;32.20;46.10
810;DHT22;387;48.772;9.186;2023-06-26T13:10:48;32.40;45.50
810;DHT22;387;48.772;9.186;2023-06-26T13:13:14;32.60;45.10
810;DHT22;387;48.772;9.186;2023-06-26T13:15:39;32.40;45.80
810;DHT22;387;48.772;9.186;2023-06-26T13:18:05;32.00;46.50
810;DHT22;387;48.772;9.186;2023-06-26T13:20:30;30.80;48.20
810;DHT22;387;48.772;9.186;2023-06-26T13:22:56;30.40;49.40
810;DHT22;387;48.772;9.186;2023-06-26T13:25:22;30.20;50.10
810;DHT22;387;48.772;9.186;2023-06-26T13:27:48;31.00;48.60
810;DHT22;387;48.772;9.186;2023-06-26T13:30:15;31.20;47.70
810;DHT22;387;48.772;9.186;2023-06-26T13:32:40;31.20;46.60
810;DHT22;387;48.772;9.186;2023-06-26T13:35:06;30.00;49.30
810;DHT22;387;48.772;9.186;2023-06-26T13:37:32;30.20;49.40
810;DHT22;387;48.772;9.186;2023-06-26T13:40:00;31.10;47.40
810;DHT22;387;48.772;9.186;2023-06-26T13:42:27;31.60;45.90
810;DHT22;387;48.772;9.186;2023-06-26T13:44:53;31.90;45.30
810;DHT22;387;48.772;9.186;2023-06-26T13:47:18;32.40;43.80
810;DHT22;387;48.772;9.186;2023-06-26T13:49:44;31.30;45.30
810;DHT22;387;48.772;9.186;2023-06-26T13:52:10;31.20;45.00
810;DHT22;387;48.772;9.186;2023-06-26T13:54:37;31.70;43.40
810;DHT22;387;48.772;9.186;2023-06-26T13:57:05;31.90;43.20
810;DHT22;387;48.772;9.186;2023-06-26T13:59:31;31.20;44.50
810;DHT22;387;48.772;9.186;2023-06-26T14:01:57;31.30;43.40
810;DHT22;387;48.772;9.186;2023-06-26T14:04:24;31.30;43.20
810;DHT22;387;48.772;9.186;2023-06-26T14:06:50;31.80;42.40
810;DHT22;387;48.772;9.186;2023-06-26T14:09:16;31.70;41.50
810;DHT22;387;48.772;9.186;2023-06-26T14:11:42;30.60;43.40
810;DHT22;387;48.772;9.186;2023-06-26T14:14:08;30.90;42.60
810;DHT22;387;48.772;9.186;2023-06-26T14:16:34;31.40;41.50
810;DHT22;387;48.772;9.186;2023-06-26T14:18:59;31.70;41.10
810;DHT22;387;48.772;9.186;2023-06-26T14:21:27;31.30;41.40
810;DHT22;387;48.772;9.186;2023-06-26T14:23:55;32.00;39.40
810;DHT22;387;48.772;9.186;2023-06-26T14:26:20;32.10;39.20
810;DHT22;387;48.772;9.186;2023-06-26T14:29:04;31.30;39.90
810;DHT22;387;48.772;9.186;2023-06-26T14:31:30;30.70;41.10
810;DHT22;387;48.772;9.186;2023-06-26T14:33:56;30.60;41.90
810;DHT22;387;48.772;9.186;2023-06-26T14:36:21;30.70;41.60
810;DHT22;387;48.772;9.186;2023-06-26T14:38:47;30.70;42.20
810;DHT22;387;48.772;9.186;2023-06-26T14:41:12;31.60;40.40
810;DHT22;387;48.772;9.186;2023-06-26T14:43:38;32.30;39.20
810;DHT22;387;48.772;9.186;2023-06-26T14:46:04;32.60;38.30
810;DHT22;387;48.772;9.186;2023-06-26T14:48:30;32.90;37.00
810;DHT22;387;48.772;9.186;2023-06-26T14:50:55;33.00;37.40
810;DHT22;387;48.772;9.186;2023-06-26T14:53:21;32.30;38.20
810;DHT22;387;48.772;9.186;2023-06-26T14:55:47;31.30;41.00
810;DHT22;387;48.772;9.186;2023-06-26T14:58:15;31.60;39.80
810;DHT22;387;48.772;9.186;2023-06-26T15:00:41;32.30;37.90
810;DHT22;387;48.772;9.186;2023-06-26T15:03:06;32.50;38.00
810;DHT22;387;48.772;9.186;2023-06-26T15:05:32;32.40;39.10
810;DHT22;387;48.772;9.186;2023-06-26T15:07:57;32.40;39.50
810;DHT22;387;48.772;9.186;2023-06-26T15:10:25;32.30;39.50
810;DHT22;387;48.772;9.186;2023-06-26T15:12:51;31.70;40.20
810;DHT22;387;48.772;9.186;2023-06-26T15:15:17;31.50;41.00
810;DHT22;387;48.772;9.186;2023-06-26T15:17:43;30.90;41.50
810;DHT22;387;48.772;9.186;2023-06-26T15:20:08;30.80;42.00
810;DHT22;387;48.772;9.186;2023-06-26T15:22:34;31.00;41.60
810;DHT22;387;48.772;9.186;2023-06-26T15:25:00;31.30;41.20
810;DHT22;387;48.772;9.186;2023-06-26T15:27:25;31.20;42.00
810;DHT22;387;48.772;9.186;2023-06-26T15:29:54;31.10;41.90
810;DHT22;387;48.772;9.186;2023-06-26T15:32:19;30.80;42.30
810;DHT22;387;48.772;9.186;2023-06-26T15:34:45;30.00;43.50
810;DHT22;387;48.772;9.186;2023-06-26T15:37:12;29.40;45.70
810;DHT22;387;48.772;9.186;2023-06-26T15:39:38;29.80;43.00
810;DHT22;387;48.772;9.186;2023-06-26T15:42:05;30.00;42.20
810;DHT22;387;48.772;9.186;2023-06-26T15:44:30;29.70;42.30
810;DHT22;387;48.772;9.186;2023-06-26T15:46:58;29.70;42.80
810;DHT22;387;48.772;9.186;2023-06-26T15:49:24;29.30;43.50
810;DHT22;387;48.772;9.186;2023-06-26T15:51:49;29.10;44.50
810;DHT22;387;48.772;9.186;2023-06-26T15:54:15;29.10;44.60
810;DHT22;387;48.772;9.186;2023-06-26T15:56:40;28.90;45.00
810;DHT22;387;48.772;9.186;2023-06-26T15:59:06;28.50;45.80
810;DHT22;387;48.772;9.186;2023-06-26T16:01:35;28.40;45.90
810;DHT22;387;48.772;9.186;2023-06-26T16:04:00;28.50;46.20
810;DHT22;387;48.772;9.186;2023-06-26T16:06:28;28.40;46.30
810;DHT22;387;48.772;9.186;2023-06-26T16:08:54;28.30;47.40
810;DHT22;387;48.772;9.186;2023-06-26T16:11:19;28.60;46.90
810;DHT22;387;48.772;9.186;2023-06-26T16:13:45;28.80;46.10
810;DHT22;387;48.772;9.186;2023-06-26T16:16:12;28.20;46.70
810;DHT22;387;48.772;9.186;2023-06-26T16:18:38;27.90;48.10
810;DHT22;387;48.772;9.186;2023-06-26T16:21:04;27.80;48.60
810;DHT22;387;48.772;9.186;2023-06-26T16:23:29;28.10;47.90
810;DHT22;387;48.772;9.186;2023-06-26T16:25:55;28.10;46.90
810;DHT22;387;48.772;9.186;2023-06-26T16:28:21;28.20;47.00
810;DHT22;387;48.772;9.186;2023-06-26T16:30:47;28.00;47.40
810;DHT22;387;48.772;9.186;2023-06-26T16:33:12;27.60;48.20
810;DHT22;387;48.772;9.186;2023-06-26T16:35:38;27.30;47.40
810;DHT22;387;48.772;9.186;2023-06-26T16:38:04;27.40;47.40
810;DHT22;387;48.772;9.186;2023-06-26T16:40:32;27.40;46.90
810;DHT22;387;48.772;9.186;2023-06-26T16:42:57;27.30;46.90
810;DHT22;387;48.772;9.186;2023-06-26T16:45:23;27.80;45.80
810;DHT22;387;48.772;9.186;2023-06-26T16:47:49;28.20;44.50
810;DHT22;387;48.772;9.186;2023-06-26T16:50:14;27.90;44.70